Time;durP1;ratioP1;P1;durP2;ratioP2;P2;SDS_P1;SDS_P2;PMS_P1;PMS_P2;Temp;Humidity;BMP_temperature;BMP_pressure;BME280_temperature;BME280_humidity;BME280_pressure;Samples;Min_cycle;Max_cycle;Signal;HPM_P1;HPM_P2
2023/01/01 00:00:47;;;;;;;6.43;4.17;;;15.20;99.90;;;;;;4959354;28;20450;-85
2023/01/01 00:03:13;;;;;;;5.87;4.10;;;;;;;;;;4943609;28;20416;-85
2023/01/01 00:05:39;;;;;;;4.20;3.60;;;15.10;99.90;;;;;;4955916;29;20468;-85
2023/01/01 00:08:05;;;;;;;8.23;2.97;;;15.20;99.90;;;;;;4955962;29;20561;-84
2023/01/01 00:10:31;;;;;;;15.20;3.87;;;15.20;99.90;;;;;;4955993;29;21037;-85
2023/01/01 00:12:57;;;;;;;5.03;3.30;;;15.30;99.90;;;;;;4956893;29;20200;-84
2023/01/01 00:15:23;;;;;;;3.60;1.70;;;15.20;99.90;;;;;;4955753;28;20420;-85
2023/01/01 00:17:49;;;;;;;4.40;2.43;;;15.20;99.90;;;;;;4956084;29;20463;-85
2023/01/01 00:20:14;;;;;;;8.63;2.40;;;15.10;99.90;;;;;;4956036;29;20399;-85
2023/01/01 00:22:41;;;;;;;3.63;2.03;;;15.10;99.90;;;;;;4957092;29;20177;-85
2023/01/01 00:25:07;;;;;;;6.70;2.20;;;15.10;99.90;;;;;;4957058;29;20177;-85
2023/01/01 00:27:33;;;;;;;2.50;1.53;;;15.00;99.90;;;;;;4955254;28;20467;-84
2023/01/01 00:29:58;;;;;;;3.50;2.10;;;14.90;99.90;;;;;;4956680;28;20822;-85
2023/01/01 00:32:24;;;;;;;4.30;2.27;;;14.90;99.90;;;;;;4956857;29;20211;-85
2023/01/01 00:34:51;;;;;;;3.17;1.47;;;14.90;99.90;;;;;;4956730;29;20185;-84
2023/01/01 00:37:17;;;;;;;5.97;2.50;;;14.80;99.90;;;;;;4956801;29;20240;-85
2023/01/01 00:39:43;;;;;;;6.93;2.57;;;14.80;99.90;;;;;;4939442;29;20428;-85
2023/01/01 00:42:09;;;;;;;5.43;1.93;;;14.80;99.90;;;;;;4955690;29;20500;-85
2023/01/01 00:44:34;;;;;;;2.90;1.93;;;14.80;99.90;;;;;;4955224;29;21016;-86
2023/01/01 00:47:00;;;;;;;4.27;1.77;;;14.70;99.90;;;;;;4939495;29;20320;-85
2023/01/01 00:49:26;;;;;;;4.83;1.60;;;14.80;99.90;;;;;;4939169;29;20189;-84
2023/01/01 00:51:52;;;;;;;4.50;1.90;;;14.70;99.90;;;;;;4955567;29;20177;-84
2023/01/01 00:54:18;;;;;;;6.90;1.93;;;14.70;99.90;;;;;;4956268;29;20417;-85
2023/01/01 00:56:43;;;;;;;8.30;1.80;;;14.60;99.90;;;;;;4955174;29;20662;-85
2023/01/01 00:59:09;;;;;;;7.13;1.90;;;14.50;99.90;;;;;;4956282;29;20645;-85
2023/01/01 01:01:35;;;;;;;6.13;1.90;;;14.50;99.90;;;;;;4954706;29;20185;-85
2023/01/01 01:04:03;;;;;;;3.47;1.83;;;14.50;99.90;;;;;;4954692;28;20192;-85
2023/01/01 01:06:29;;;;;;;4.20;1.90;;;14.40;99.90;;;;;;4954341;29;20262;-84
2023/01/01 01:08:55;;;;;;;3.97;1.70;;;14.30;99.90;;;;;;4954939;29;20889;-84
2023/01/01 01:11:23;;;;;;;2.77;2.10;;;14.30;99.90;;;;;;4939045;29;20193;-85
2023/01/01 01:13:51;;;;;;;5.00;2.10;;;14.30;99.90;;;;;;4956223;29;20216;-85
2023/01/01 01:16:24;;;;;;;4.23;2.27;;;14.20;99.90;;;;;;4955653;29;20404;-85
2023/01/01 01:18:52;;;;;;;3.90;2.13;;;14.20;99.90;;;;;;4956036;29;20419;-85
2023/01/01 01:21:18;;;;;;;2.93;2.20;;;14.20;99.90;;;;;;4954409;29;20429;-86
2023/01/01 01:23:45;;;;;;;2.13;1.40;;;14.30;99.90;;;;;;4956044;29;20413;-85
2023/01/01 01:26:23;;;;;;;2.90;1.40;;;14.20;99.90;;;;;;4954776;29;20788;-84
2023/01/01 01:28:49;;;;;;;4.83;1.73;;;14.20;99.90;;;;;;4954713;29;20432;-85
2023/01/01 01:31:14;;;;;;;4.23;1.60;;;14.20;99.90;;;;;;4956029;29;20416;-86
2023/01/01 01:33:43;;;;;;;4.13;1.90;;;14.20;99.90;;;;;;4956091;29;20185;-85
2023/01/01 01:36:10;;;;;;;2.43;1.40;;;14.20;99.90;;;;;;4955586;29;20196;-84
2023/01/01 01:38:36;;;;;;;4.37;1.47;;;14.20;99.90;;;;;;4955456;29;20423;-85
2023/01/01 01:41:02;;;;;;;3.30;1.20;;;14.20;99.90;;;;;;4953745;29;20408;-86
2023/01/01 01:43:33;;;;;;;3.13;1.40;;;14.20;99.90;;;;;;4955877;28;20191;-85
2023/01/01 01:46:16;;;;;;;2.53;1.20;;;14.20;99.90;;;;;;4956243;29;20409;-84
2023/01/01 01:48:50;;;;;;;5.00;1.37;;;14.20;99.90;;;;;;4955895;29;20409;-86
2023/01/01 01:51:26;;;;;;;3.27;1.63;;;14.20;99.90;;;;;;4955867;29;20498;-84
2023/01/01 01:53:56;;;;;;;1.80;1.40;;;14.20;99.90;;;;;;4956050;29;20415;-84
2023/01/01 01:56:36;;;;;;;3.47;1.30;;;14.20;99.90;;;;;;4954224;29;20416;-84
2023/01/01 01:59:02;;;;;;;3.43;1.73;;;14.20;99.90;;;;;;4955048;29;20420;-84
2023/01/01 02:01:28;;;;;;;3.50;1.63;;;14.30;99.90;;;;;;4922916;29;20443;-84
2023/01/01 02:03:58;;;;;;;2.37;1.40;;;14.30;99.90;;;;;;4938861;29;20619;-84
2023/01/01 02:06:26;;;;;;;4.20;1.90;;;14.30;99.90;;;;;;4969642;28;20266;-84
2023/01/01 02:08:52;;;;;;;4.03;1.33;;;14.20;99.90;;;;;;4975047;28;20447;-85
2023/01/01 02:11:18;;;;;;;3.60;1.40;;;14.20;99.90;;;;;;4957723;28;20963;-84
2023/01/01 02:13:44;;;;;;;4.87;1.60;;;14.20;99.90;;;;;;4957754;28;20436;-84
2023/01/01 02:16:35;;;;;;;2.53;1.30;;;14.10;99.90;;;;;;4926010;28;20181;-84
2023/01/01 02:19:12;;;;;;;4.13;1.67;;;14.20;99.90;;;;;;4974752;28;20215;-84
2023/01/01 02:21:55;;;;;;;3.73;1.43;;;14.20;99.90;;;;;;4974728;28;20880;-84
2023/01/01 02:24:52;;;;;;;3.27;1.20;;;14.20;99.90;;;;;;4974884;28;20411;-85
2023/01/01 02:27:45;;;;;;;5.83;1.57;;;14.30;99.90;;;;;;4957199;28;20439;-85
2023/01/01 02:30:11;;;;;;;4.80;1.30;;;14.30;99.90;;;;;;4957371;28;20416;-84
2023/01/01 02:32:45;;;;;;;2.47;1.20;;;14.30;99.90;;;;;;4941495;28;20419;-84
2023/01/01 02:35:35;;;;;;;3.70;1.60;;;14.30;99.90;;;;;;4974593;28;20463;-84
2023/01/01 02:38:28;;;;;;;3.27;1.63;;;14.30;99.90;;;;;;4974511;28;20467;-84
2023/01/01 02:41:01;;;;;;;9.00;2.10;;;14.30;99.90;;;;;;4974929;28;20442;-84
2023/01/01 02:43:27;;;;;;;2.53;1.40;;;14.30;99.90;;;;;;4974518;28;20765;-85
2023/01/01 02:45:54;;;;;;;4.30;1.30;;;14.30;99.90;;;;;;4957096;28;20430;-84
2023/01/01 02:48:47;;;;;;;2.63;1.53;;;14.30;99.90;;;;;;4974650;28;20419;-85
2023/01/01 02:51:13;;;;;;;1.77;1.10;;;;;;;;;;4957280;28;20499;-84
2023/01/01 02:53:58;;;;;;;2.27;1.40;;;14.40;99.90;;;;;;4960070;28;20498;-84
2023/01/01 02:56:32;;;;;;;1.63;1.30;;;14.30;99.90;;;;;;4977333;28;20807;-84
2023/01/01 03:02:23;;;;;;;5.03;1.63;;;14.40;99.90;;;;;;4977895;28;20407;-83
2023/01/01 03:05:02;;;;;;;2.17;1.93;;;14.30;99.90;;;;;;4977604;28;20935;-85
2023/01/01 03:07:58;;;;;;;2.27;1.47;;;14.30;99.90;;;;;;4960362;28;20442;-84
2023/01/01 03:10:30;;;;;;;4.63;1.73;;;14.40;99.90;;;;;;4960394;28;20432;-84
2023/01/01 03:13:05;;;;;;;5.57;1.43;;;14.30;99.90;;;;;;4977722;28;20426;-84
2023/01/01 03:15:59;;;;;;;5.83;1.70;;;14.40;99.90;;;;;;4960084;28;20515;-84
2023/01/01 03:18:38;;;;;;;3.77;1.87;;;;;;;;;;4958634;28;20494;-84
2023/01/01 03:21:06;;;;;;;2.30;1.50;;;14.30;99.90;;;;;;4960065;28;20434;-84
2023/01/01 03:23:45;;;;;;;3.23;1.57;;;14.40;99.90;;;;;;4959986;28;20482;-84
2023/01/01 03:26:12;;;;;;;3.33;1.53;;;14.40;99.90;;;;;;4960203;28;20990;-83
2023/01/01 03:28:51;;;;;;;6.67;2.03;;;14.30;99.90;;;;;;4976753;28;20394;-84
2023/01/01 03:31:24;;;;;;;5.33;2.07;;;14.30;99.90;;;;;;4977303;28;20411;-84
2023/01/01 03:34:01;;;;;;;13.57;2.40;;;14.30;99.90;;;;;;4977278;28;20399;-84
2023/01/01 03:36:50;;;;;;;4.67;1.30;;;14.30;99.90;;;;;;4959904;28;20849;-84
2023/01/01 03:39:26;;;;;;;3.40;1.67;;;14.30;99.90;;;;;;4977432;28;20423;-84
2023/01/01 03:42:04;;;;;;;2.93;1.57;;;14.30;99.90;;;;;;4977213;28;20441;-84
2023/01/01 03:44:34;;;;;;;1.83;1.23;;;14.30;99.90;;;;;;4977034;28;20896;-84
2023/01/01 03:47:01;;;;;;;3.10;1.40;;;14.30;99.90;;;;;;4976884;28;20415;-84
2023/01/01 03:49:29;;;;;;;3.80;1.60;;;14.40;99.90;;;;;;4976962;28;20435;-84
2023/01/01 03:52:29;;;;;;;4.60;1.33;;;14.40;99.90;;;;;;4976734;28;20830;-84
2023/01/01 03:55:28;;;;;;;4.30;1.20;;;14.40;99.90;;;;;;4976927;28;20415;-84
2023/01/01 03:58:11;;;;;;;6.67;2.40;;;14.40;99.90;;;;;;4976562;28;20459;-84
2023/01/01 04:00:52;;;;;;;3.30;1.80;;;14.40;99.90;;;;;;4959481;28;20431;-84
2023/01/01 04:03:22;;;;;;;2.40;1.40;;;14.50;99.90;;;;;;4976290;28;20416;-84
2023/01/01 04:05:48;;;;;;;2.10;1.27;;;14.50;99.90;;;;;;4976160;28;20562;-84
2023/01/01 04:08:15;;;;;;;2.73;2.00;;;14.50;99.90;;;;;;4959502;28;20566;-84
2023/01/01 04:10:45;;;;;;;6.70;1.50;;;14.50;99.90;;;;;;4976411;28;20172;-84
2023/01/01 04:13:10;;;;;;;4.37;1.47;;;14.60;99.90;;;;;;4976491;28;20741;-84
2023/01/01 04:15:37;;;;;;;3.73;1.50;;;14.60;99.90;;;;;;4976576;28;20639;-84
2023/01/01 04:18:03;;;;;;;3.30;1.33;;;14.60;99.90;;;;;;4976618;28;20558;-84
2023/01/01 04:20:29;;;;;;;3.90;1.50;;;14.60;99.90;;;;;;4976358;28;20172;-84
2023/01/01 04:26:02;;;;;;;3.50;1.93;;;14.50;99.90;;;;;;4976337;28;20750;-84
2023/01/01 04:28:27;;;;;;;6.40;2.03;;;14.60;99.90;;;;;;4942783;28;20790;-84
2023/01/01 04:30:53;;;;;;;1.83;1.30;;;14.50;99.90;;;;;;4958950;28;20420;-83
2023/01/01 04:33:18;;;;;;;3.10;1.60;;;14.50;99.90;;;;;;4959109;28;20180;-84
2023/01/01 04:35:44;;;;;;;5.03;1.57;;;14.50;99.90;;;;;;4958844;28;20931;-84
2023/01/01 04:38:13;;;;;;;5.00;1.70;;;14.50;99.90;;;;;;4958636;28;20239;-83
2023/01/01 04:40:39;;;;;;;7.00;1.93;;;14.50;99.90;;;;;;4958613;28;20216;-83
2023/01/01 04:43:04;;;;;;;4.70;1.70;;;14.50;99.90;;;;;;4958676;28;20451;-84
2023/01/01 04:45:30;;;;;;;3.27;1.73;;;14.40;99.90;;;;;;4958497;28;20748;-84
2023/01/01 04:47:55;;;;;;;3.53;1.80;;;14.40;99.90;;;;;;4958781;28;20184;-84
2023/01/01 04:50:21;;;;;;;2.93;1.83;;;14.30;99.90;;;;;;4958531;28;20184;-84
2023/01/01 04:52:50;;;;;;;3.97;1.80;;;14.30;99.90;;;;;;4958025;28;20219;-84
2023/01/01 04:55:16;;;;;;;5.50;2.20;;;14.40;99.90;;;;;;4975594;28;20625;-84
2023/01/01 04:57:41;;;;;;;3.40;1.53;;;14.30;99.90;;;;;;4958186;28;20529;-84
2023/01/01 05:00:07;;;;;;;5.80;1.70;;;14.40;99.90;;;;;;4975765;28;20411;-84
2023/01/01 05:02:33;;;;;;;2.13;1.33;;;14.40;99.90;;;;;;4942081;28;20282;-84
2023/01/01 05:04:59;;;;;;;3.60;1.83;;;14.40;99.90;;;;;;4958145;28;20503;-84
2023/01/01 05:07:24;;;;;;;3.43;1.60;;;14.30;99.90;;;;;;4958282;28;20188;-84
2023/01/01 05:09:50;;;;;;;1.93;1.50;;;14.30;99.90;;;;;;4975360;28;20176;-84
2023/01/01 05:12:15;;;;;;;2.50;1.27;;;14.30;99.90;;;;;;4958230;28;20188;-84
2023/01/01 05:14:41;;;;;;;3.43;1.53;;;14.20;99.90;;;;;;4957952;28;20219;-84
2023/01/01 05:17:07;;;;;;;3.83;1.57;;;14.20;99.90;;;;;;4957314;28;20246;-84
2023/01/01 05:19:32;;;;;;;3.30;1.73;;;14.20;99.90;;;;;;4957969;28;20256;-84
2023/01/01 05:21:58;;;;;;;2.83;1.50;;;14.10;99.90;;;;;;4941964;28;20184;-84
2023/01/01 05:24:23;;;;;;;2.27;1.40;;;14.10;99.90;;;;;;4942410;28;20203;-84
2023/01/01 05:26:49;;;;;;;4.63;1.90;;;14.00;99.90;;;;;;4958108;28;20184;-84
2023/01/01 05:29:15;;;;;;;5.50;1.90;;;14.00;99.90;;;;;;4941913;28;20633;-84
2023/01/01 05:31:40;;;;;;;6.20;2.50;;;14.00;99.90;;;;;;4957937;28;20695;-84
2023/01/01 05:34:06;;;;;;;4.97;2.47;;;13.90;99.90;;;;;;4941887;28;20188;-85
2023/01/01 05:36:37;;;;;;;2.17;1.50;;;13.80;99.90;;;;;;4957872;28;20210;-84
2023/01/01 05:39:05;;;;;;;6.33;1.60;;;13.80;99.90;;;;;;4975222;28;20223;-83
2023/01/01 05:41:32;;;;;;;2.03;1.50;;;13.70;99.90;;;;;;4974921;28;20408;-86
2023/01/01 05:44:00;;;;;;;4.80;1.53;;;13.80;99.90;;;;;;4975172;28;20440;-85
2023/01/01 05:46:25;;;;;;;4.13;1.50;;;13.80;99.90;;;;;;4975455;28;20424;-85
2023/01/01 05:48:52;;;;;;;3.17;1.47;;;13.80;99.90;;;;;;4957545;28;20440;-85
2023/01/01 05:51:21;;;;;;;5.80;3.00;;;13.80;99.90;;;;;;4974948;28;20184;-85
2023/01/01 05:53:47;;;;;;;2.33;1.90;;;13.90;99.90;;;;;;4957360;28;20424;-84
2023/01/01 05:56:13;;;;;;;4.27;1.90;;;13.90;99.90;;;;;;4941561;28;20574;-85
2023/01/01 05:58:39;;;;;;;2.60;1.33;;;13.90;99.90;;;;;;4957358;28;20215;-85
2023/01/01 06:01:14;;;;;;;7.27;1.50;;;13.90;99.90;;;;;;4957637;28;20416;-84
2023/01/01 06:03:40;;;;;;;3.40;1.70;;;14.00;99.90;;;;;;4974707;28;20415;-85
2023/01/01 06:06:08;;;;;;;4.03;1.50;;;14.00;99.90;;;;;;4974716;28;20818;-85
2023/01/01 06:08:34;;;;;;;1.97;1.37;;;14.00;99.90;;;;;;4957255;28;20441;-85
2023/01/01 06:11:01;;;;;;;3.50;2.07;;;14.00;99.90;;;;;;4975138;28;20412;-85
2023/01/01 06:13:27;;;;;;;3.37;2.03;;;14.00;99.90;;;;;;4957678;28;20184;-85
2023/01/01 06:15:55;;;;;;;3.20;1.50;;;14.00;99.90;;;;;;4941473;28;20501;-85
2023/01/01 06:18:20;;;;;;;7.63;1.63;;;14.00;99.90;;;;;;4957757;28;20459;-84
2023/01/01 06:20:46;;;;;;;6.17;1.57;;;;;;;;;;4957600;28;20418;-84
2023/01/01 06:23:12;;;;;;;2.87;1.60;;;14.10;99.90;;;;;;4975147;28;20230;-84
2023/01/01 06:25:38;;;;;;;3.17;1.40;;;14.10;99.90;;;;;;4957408;28;20421;-84
2023/01/01 06:28:03;;;;;;;3.73;1.90;;;14.10;99.90;;;;;;4959744;28;20247;-84
2023/01/01 06:30:30;;;;;;;3.63;1.67;;;;;;;;;;4961293;28;20691;-84
2023/01/01 06:32:56;;;;;;;3.37;1.80;;;14.10;99.90;;;;;;4960925;28;20629;-86
2023/01/01 06:35:21;;;;;;;3.87;1.40;;;14.20;99.90;;;;;;4978210;28;20415;-84
2023/01/01 06:37:47;;;;;;;2.97;1.50;;;14.10;99.90;;;;;;4978275;28;20208;-85
2023/01/01 06:40:13;;;;;;;4.50;1.90;;;14.10;99.90;;;;;;4944987;28;20185;-85
2023/01/01 06:42:39;;;;;;;3.77;1.60;;;14.10;99.90;;;;;;4960749;28;20672;-84
2023/01/01 06:45:05;;;;;;;4.73;1.70;;;14.10;99.90;;;;;;4977990;28;20423;-84
2023/01/01 06:47:35;;;;;;;5.97;2.33;;;14.10;99.90;;;;;;4961011;28;20215;-84
2023/01/01 06:50:04;;;;;;;5.50;2.33;;;14.10;99.90;;;;;;4944889;28;20510;-84
2023/01/01 06:52:30;;;;;;;5.30;1.90;;;14.10;99.90;;;;;;4977910;28;20415;-84
2023/01/01 06:54:55;;;;;;;5.23;1.70;;;14.10;99.90;;;;;;4978156;28;20458;-84
2023/01/01 06:57:22;;;;;;;4.57;2.10;;;14.20;99.90;;;;;;4978082;28;20863;-84
2023/01/01 06:59:48;;;;;;;5.43;1.77;;;14.20;99.90;;;;;;4944799;28;20211;-84
2023/01/01 07:02:13;;;;;;;3.00;1.40;;;14.20;99.90;;;;;;4944998;28;20427;-84
2023/01/01 07:04:39;;;;;;;5.73;1.70;;;14.20;99.90;;;;;;4960724;28;20181;-84
2023/01/01 07:07:04;;;;;;;1.70;1.40;;;14.20;99.90;;;;;;4960936;28;20207;-84
2023/01/01 07:09:30;;;;;;;8.50;1.77;;;14.20;99.90;;;;;;4978387;28;20694;-84
2023/01/01 07:11:56;;;;;;;3.00;1.50;;;14.10;99.90;;;;;;4960380;28;20180;-84
2023/01/01 07:14:21;;;;;;;6.20;2.00;;;14.10;99.90;;;;;;4977940;28;20183;-84
2023/01/01 07:16:47;;;;;;;6.13;1.70;;;14.10;99.90;;;;;;4959906;28;20220;-85
2023/01/01 07:19:13;;;;;;;2.80;1.80;;;14.20;99.90;;;;;;4960548;28;20180;-84
2023/01/01 07:21:51;;;;;;;5.53;1.80;;;14.20;99.90;;;;;;4944173;28;20180;-84
2023/01/01 07:24:17;;;;;;;3.60;1.73;;;14.20;99.90;;;;;;4977765;28;20200;-84
2023/01/01 07:26:44;;;;;;;6.03;1.70;;;14.20;99.90;;;;;;4960387;28;21010;-84
2023/01/01 07:29:11;;;;;;;5.20;1.60;;;14.20;99.90;;;;;;4977423;28;20180;-84
2023/01/01 07:31:39;;;;;;;4.23;1.83;;;14.30;99.90;;;;;;4959931;28;20939;-85
2023/01/01 07:34:06;;;;;;;3.83;1.83;;;14.20;99.90;;;;;;4977479;28;20407;-84
2023/01/01 07:36:32;;;;;;;9.93;2.00;;;14.30;99.90;;;;;;4960126;28;20912;-84
2023/01/01 07:38:58;;;;;;;3.60;1.40;;;14.30;99.90;;;;;;4976081;28;20423;-85
2023/01/01 07:41:24;;;;;;;3.53;1.80;;;14.30;99.90;;;;;;4960018;28;20428;-84
2023/01/01 07:43:49;;;;;;;4.27;1.80;;;14.20;99.90;;;;;;4977209;28;20534;-84
2023/01/01 07:46:17;;;;;;;4.60;1.83;;;14.30;99.90;;;;;;4977328;28;20180;-86
2023/01/01 07:48:43;;;;;;;4.07;1.60;;;14.30;99.90;;;;;;4959342;28;20267;-84
2023/01/01 07:51:09;;;;;;;4.30;1.90;;;14.30;99.90;;;;;;4977100;28;20822;-84
2023/01/01 07:53:34;;;;;;;4.50;1.70;;;14.40;99.90;;;;;;4943613;28;20431;-83
2023/01/01 07:56:00;;;;;;;3.00;1.60;;;14.40;99.90;;;;;;4943456;28;20204;-83
2023/01/01 07:58:26;;;;;;;4.60;1.80;;;14.30;99.90;;;;;;4959533;28;20650;-83
2023/01/01 08:00:51;;;;;;;4.80;1.60;;;14.20;99.90;;;;;;4959382;28;20184;-84
2023/01/01 08:03:17;;;;;;;4.93;2.93;;;14.30;99.90;;;;;;4959654;28;20242;-85
2023/01/01 08:05:43;;;;;;;4.07;1.93;;;14.30;99.90;;;;;;4977105;28;20239;-84
2023/01/01 08:08:10;;;;;;;4.33;2.10;;;14.30;99.90;;;;;;4976459;28;20608;-84
2023/01/01 08:10:35;;;;;;;4.70;1.70;;;14.30;99.90;;;;;;4976643;28;20422;-84
2023/01/01 08:13:03;;;;;;;5.83;1.37;;;14.30;99.90;;;;;;4976297;28;20909;-84
2023/01/01 08:15:29;;;;;;;3.23;1.53;;;14.30;99.90;;;;;;4976429;28;20180;-84
2023/01/01 08:17:59;;;;;;;4.50;1.93;;;14.20;99.90;;;;;;4976112;28;20463;-84
2023/01/01 08:20:26;;;;;;;5.13;1.80;;;14.30;99.90;;;;;;4976694;28;20533;-84
2023/01/01 08:22:52;;;;;;;3.60;1.70;;;14.30;99.90;;;;;;4943140;28;20825;-85
2023/01/01 08:25:18;;;;;;;10.77;1.43;;;14.20;99.90;;;;;;4976574;28;20518;-84
2023/01/01 08:27:44;;;;;;;3.70;1.70;;;14.20;99.90;;;;;;4975851;28;20904;-85
2023/01/01 08:30:11;;;;;;;5.40;1.43;;;14.20;99.90;;;;;;4976383;28;20528;-85
2023/01/01 08:32:37;;;;;;;4.43;1.60;;;14.20;99.90;;;;;;4976028;28;20644;-85
2023/01/01 08:35:03;;;;;;;4.07;1.90;;;14.20;99.90;;;;;;4958663;28;20438;-85
2023/01/01 08:37:28;;;;;;;3.70;1.73;;;14.20;99.90;;;;;;4958928;28;20247;-85
2023/01/01 08:39:54;;;;;;;5.67;1.80;;;14.10;99.90;;;;;;4942926;28;20466;-84
2023/01/01 08:42:19;;;;;;;2.40;1.67;;;14.10;99.90;;;;;;4958560;28;20617;-84
2023/01/01 08:44:45;;;;;;;4.40;1.90;;;14.10;99.90;;;;;;4959202;28;20677;-85
2023/01/01 08:47:25;;;;;;;2.17;1.50;;;14.10;99.90;;;;;;4975993;28;20251;-84
2023/01/01 08:49:52;;;;;;;6.23;1.73;;;;;;;;;;4975810;28;20408;-84
2023/01/01 08:52:18;;;;;;;2.50;1.63;;;14.00;99.90;;;;;;4976139;28;20428;-84
2023/01/01 08:54:44;;;;;;;3.07;1.50;;;14.00;99.90;;;;;;4958592;28;20528;-84
2023/01/01 08:57:10;;;;;;;5.03;1.73;;;14.00;99.90;;;;;;4958829;28;20908;-83
2023/01/01 08:59:36;;;;;;;3.80;1.90;;;14.00;99.90;;;;;;4942495;28;20180;-84
2023/01/01 09:02:02;;;;;;;4.07;1.70;;;14.00;99.90;;;;;;4958405;28;20419;-84
2023/01/01 09:04:28;;;;;;;7.33;2.23;;;14.00;99.90;;;;;;4958557;28;20179;-83
2023/01/01 09:06:53;;;;;;;5.47;2.07;;;14.00;99.90;;;;;;4958076;28;20479;-84
2023/01/01 09:09:19;;;;;;;6.83;2.40;;;14.00;99.90;;;;;;4942563;28;20190;-84
2023/01/01 09:11:52;;;;;;;3.20;1.90;;;14.00;99.90;;;;;;4942077;28;20263;-84
2023/01/01 09:14:19;;;;;;;3.13;1.67;;;14.00;99.90;;;;;;4975526;28;20187;-85
2023/01/01 09:16:45;;;;;;;4.07;1.77;;;14.00;99.90;;;;;;4975034;28;20536;-85
2023/01/01 09:19:10;;;;;;;5.67;1.60;;;14.00;99.90;;;;;;4926508;28;20908;-84
2023/01/01 09:21:36;;;;;;;3.00;1.67;;;14.00;99.90;;;;;;4974895;28;20188;-84
2023/01/01 09:24:01;;;;;;;3.27;1.80;;;14.00;99.90;;;;;;4957933;28;20208;-84
2023/01/01 09:26:27;;;;;;;4.40;1.90;;;14.00;99.90;;;;;;4975026;28;20528;-84
2023/01/01 09:28:52;;;;;;;7.40;2.40;;;14.10;99.90;;;;;;4942203;28;20188;-84
2023/01/01 09:31:18;;;;;;;2.87;1.70;;;14.10;99.90;;;;;;4926358;28;20283;-84
2023/01/01 09:33:44;;;;;;;5.90;1.77;;;14.10;99.90;;;;;;4941738;28;20181;-85
2023/01/01 09:36:31;;;;;;;5.60;2.03;;;14.10;99.90;;;;;;4958298;28;20184;-84
2023/01/01 09:38:57;;;;;;;3.30;2.03;;;14.20;99.90;;;;;;4975063;28;20259;-85
2023/01/01 09:41:42;;;;;;;4.60;1.80;;;14.20;99.90;;;;;;4975061;28;20415;-84
2023/01/01 09:44:22;;;;;;;3.70;2.10;;;14.30;99.90;;;;;;4974648;28;20467;-85
2023/01/01 09:46:48;;;;;;;3.83;1.60;;;14.30;99.90;;;;;;4974763;28;20530;-84
2023/01/01 09:49:36;;;;;;;5.63;1.63;;;14.30;99.90;;;;;;4957737;28;20436;-84
2023/01/01 09:52:04;;;;;;;5.30;1.73;;;14.30;99.90;;;;;;4974884;28;20854;-84
2023/01/01 09:54:32;;;;;;;5.03;1.90;;;14.30;99.90;;;;;;4957383;28;20419;-84
2023/01/01 09:56:59;;;;;;;5.27;2.20;;;14.30;99.90;;;;;;4957875;28;20475;-85
2023/01/01 09:59:25;;;;;;;2.90;1.43;;;14.40;99.90;;;;;;4957582;28;20423;-84
2023/01/01 10:02:18;;;;;;;4.50;1.70;;;14.40;99.90;;;;;;4957571;28;20897;-84
2023/01/01 10:04:58;;;;;;;3.10;2.00;;;14.40;99.90;;;;;;4980529;28;20400;-86
2023/01/01 10:08:09;;;;;;;6.43;2.30;;;14.50;99.90;;;;;;4980179;28;20820;-84
2023/01/01 10:10:40;;;;;;;4.83;2.13;;;14.50;99.90;;;;;;4922115;29;20529;-85
2023/01/01 10:13:24;;;;;;;3.10;1.70;;;14.50;99.90;;;;;;4959396;28;20459;-84
2023/01/01 10:16:19;;;;;;;3.97;1.90;;;14.50;99.90;;;;;;4961468;28;20493;-84
2023/01/01 10:18:49;;;;;;;7.50;3.20;;;14.50;99.90;;;;;;4977157;28;20479;-86
2023/01/01 10:21:20;;;;;;;4.70;1.70;;;14.50;99.90;;;;;;4978597;28;20407;-84
2023/01/01 10:23:54;;;;;;;3.53;1.47;;;14.60;99.90;;;;;;4960977;28;20455;-89
2023/01/01 10:26:24;;;;;;;4.97;2.53;;;14.60;99.90;;;;;;4978271;28;20499;-84
2023/01/01 10:28:53;;;;;;;3.60;1.53;;;;;;;;;;4978559;28;20418;-84
2023/01/01 10:31:33;;;;;;;2.90;1.50;;;14.60;99.90;;;;;;4979175;28;20403;-83
2023/01/01 10:34:05;;;;;;;6.80;2.00;;;14.60;99.90;;;;;;4961118;28;20434;-84
2023/01/01 10:36:31;;;;;;;5.57;1.87;;;14.60;99.90;;;;;;4961174;28;20438;-83
2023/01/01 10:38:57;;;;;;;5.63;1.80;;;14.50;99.90;;;;;;4978200;28;20423;-84
2023/01/01 10:41:23;;;;;;;5.00;1.80;;;14.60;99.90;;;;;;4978570;28;20499;-85
2023/01/01 10:43:49;;;;;;;4.60;1.73;;;14.60;99.90;;;;;;4960666;28;20191;-84
2023/01/01 10:46:22;;;;;;;8.43;1.90;;;14.70;99.90;;;;;;4944852;28;20496;-83
2023/01/01 10:49:04;;;;;;;4.90;1.47;;;14.70;99.90;;;;;;4977958;28;20502;-87
2023/01/01 10:51:30;;;;;;;8.50;1.70;;;14.70;99.90;;;;;;4978345;28;20399;-84
2023/01/01 10:53:55;;;;;;;7.53;1.97;;;14.70;99.90;;;;;;4960708;28;20435;-84
2023/01/01 10:56:23;;;;;;;3.40;1.90;;;14.70;99.90;;;;;;4978160;28;20192;-83
2023/01/01 10:58:54;;;;;;;5.43;1.90;;;14.70;99.90;;;;;;4977247;28;20231;-84
2023/01/01 11:01:31;;;;;;;6.63;1.53;;;14.80;99.90;;;;;;4960390;28;20514;-84
2023/01/01 11:04:00;;;;;;;5.10;1.50;;;14.80;99.90;;;;;;4960196;28;20396;-84
2023/01/01 11:06:33;;;;;;;6.00;1.70;;;14.80;99.90;;;;;;4977620;28;20856;-84
2023/01/01 11:09:05;;;;;;;3.20;1.47;;;14.80;99.90;;;;;;4977617;28;20458;-84
2023/01/01 11:11:54;;;;;;;3.67;1.43;;;14.80;99.90;;;;;;4961310;28;20755;-84
2023/01/01 11:14:38;;;;;;;6.33;1.83;;;14.80;99.90;;;;;;4960428;28;20924;-83
2023/01/01 11:17:04;;;;;;;3.83;1.53;;;14.80;99.90;;;;;;4977521;28;20810;-84
2023/01/01 11:19:32;;;;;;;5.77;2.27;;;14.80;99.90;;;;;;4960337;28;20415;-85
2023/01/01 11:21:59;;;;;;;4.10;2.13;;;14.80;99.90;;;;;;4977756;28;20417;-85
2023/01/01 11:24:32;;;;;;;8.83;2.40;;;14.70;99.90;;;;;;4978286;28;20764;-84
2023/01/01 11:27:23;;;;;;;4.93;2.13;;;14.70;99.90;;;;;;4960503;28;20449;-85
2023/01/01 11:29:53;;;;;;;5.03;1.70;;;14.70;99.90;;;;;;4960178;28;20424;-92
2023/01/01 11:32:34;;;;;;;5.23;1.37;;;14.70;99.90;;;;;;4945210;28;20471;-88
2023/01/01 11:35:05;;;;;;;3.87;1.63;;;14.70;99.90;;;;;;4959946;28;20402;-85
2023/01/01 11:37:34;;;;;;;2.80;1.23;;;14.70;99.90;;;;;;4977530;28;20951;-84
2023/01/01 11:40:02;;;;;;;5.67;1.47;;;14.80;99.90;;;;;;4960223;28;20461;-85
2023/01/01 11:42:31;;;;;;;4.93;1.93;;;14.70;99.90;;;;;;4960958;28;20475;-85
2023/01/01 11:45:00;;;;;;;3.13;2.33;;;14.70;99.90;;;;;;4978019;28;20883;-86
2023/01/01 11:47:34;;;;;;;3.13;1.40;;;14.80;99.90;;;;;;4977417;28;20415;-85
2023/01/01 11:50:23;;;;;;;5.20;1.80;;;14.80;99.90;;;;;;4977112;28;20404;-85
2023/01/01 11:52:51;;;;;;;7.47;1.50;;;14.80;99.90;;;;;;4960060;28;20413;-85
2023/01/01 11:55:20;;;;;;;4.13;1.90;;;14.80;99.90;;;;;;4977405;28;20784;-85
2023/01/01 11:57:53;;;;;;;6.53;2.20;;;14.80;99.90;;;;;;4977013;28;20499;-85
2023/01/01 12:00:19;;;;;;;4.70;1.80;;;14.90;99.90;;;;;;4977120;28;20421;-85
2023/01/01 12:03:00;;;;;;;5.23;2.03;;;14.80;99.90;;;;;;4944049;28;20834;-86
2023/01/01 12:05:50;;;;;;;7.10;2.20;;;14.80;99.90;;;;;;4960449;28;20230;-86
2023/01/01 12:08:25;;;;;;;4.37;1.60;;;14.80;99.90;;;;;;4976683;28;20499;-85
2023/01/01 12:11:00;;;;;;;6.43;1.60;;;14.80;99.90;;;;;;4977487;28;20404;-86
2023/01/01 12:13:31;;;;;;;3.90;1.63;;;14.80;99.90;;;;;;4976940;28;20487;-86
2023/01/01 12:16:08;;;;;;;3.10;1.53;;;14.80;99.90;;;;;;4976699;28;20431;-85
2023/01/01 12:18:42;;;;;;;3.20;1.70;;;14.80;99.90;;;;;;4959694;28;20471;-85
2023/01/01 12:21:17;;;;;;;5.30;1.80;;;14.80;99.90;;;;;;4976657;28;20400;-85
2023/01/01 12:23:43;;;;;;;4.33;1.43;;;14.80;99.90;;;;;;4960056;28;20906;-86
2023/01/01 12:26:18;;;;;;;5.17;1.60;;;14.90;99.90;;;;;;4943304;28;20431;-85
2023/01/01 12:29:10;;;;;;;4.17;1.57;;;14.90;99.90;;;;;;4976868;28;20171;-85
2023/01/01 12:31:47;;;;;;;4.50;1.13;;;14.90;99.90;;;;;;4976581;28;20403;-86
2023/01/01 12:34:19;;;;;;;3.70;1.97;;;15.10;99.90;;;;;;4977106;28;20411;-86
2023/01/01 12:37:19;;;;;;;5.93;2.03;;;15.10;99.90;;;;;;4976710;28;20779;-85
2023/01/01 12:40:20;;;;;;;4.77;1.80;;;15.00;99.90;;;;;;4977033;28;20753;-86
2023/01/01 12:43:03;;;;;;;2.70;1.30;;;15.00;99.90;;;;;;4959291;28;20523;-85
2023/01/01 12:45:49;;;;;;;4.23;1.60;;;15.00;99.90;;;;;;4977017;28;20419;-87
2023/01/01 12:48:41;;;;;;;3.30;1.73;;;15.00;99.90;;;;;;4976119;28;20404;-87
2023/01/01 12:51:35;;;;;;;3.67;1.30;;;14.90;99.90;;;;;;4977572;28;20485;-87
2023/01/01 12:54:28;;;;;;;5.63;1.80;;;14.90;99.90;;;;;;4958598;28;20970;-87
2023/01/01 12:56:56;;;;;;;3.80;1.60;;;14.90;99.90;;;;;;4976274;28;20460;-87
2023/01/01 12:59:32;;;;;;;4.73;1.90;;;14.90;99.90;;;;;;4976614;28;20403;-87
2023/01/01 13:02:01;;;;;;;5.77;1.70;;;14.90;99.90;;;;;;4976177;28;20395;-87
2023/01/01 13:04:28;;;;;;;4.20;1.60;;;15.00;99.90;;;;;;4976044;28;20777;-87
2023/01/01 13:07:03;;;;;;;9.57;1.57;;;15.00;99.90;;;;;;4955406;29;20487;-86
2023/01/01 13:09:33;;;;;;;5.27;2.37;;;14.90;99.90;;;;;;4955258;29;20503;-87
2023/01/01 13:12:04;;;;;;;3.43;1.37;;;14.80;99.90;;;;;;4957626;29;20794;-88